Time,TemperatureF,DewpointF,PressureIn,WindDirection,WindDirectionDegrees,WindSpeedMPH,WindSpeedGustMPH,Humidity,HourlyPrecipIn,Conditions,Clouds,dailyrainin,SoftwareType,DateUTC
2013-02-10 00:02:00,16.3,11.8,29.91,SSW,212,0.0,0.0,82,0.00,RA,,0.00,WeatherDisplay:10.37,2013-02-10 08:02:00,
2013-02-10 00:07:00,16.2,11.6,29.91,SW,228,0.0,0.0,82,0.00,RA,,0.00,WeatherDisplay:10.37,2013-02-10 08:07:00,
2013-02-10 00:12:00,15.9,11.3,29.91,WSW,253,0.0,0.0,82,0.00,RA,,0.00,WeatherDisplay:10.37,2013-02-10 08:12:00,
2013-02-10 00:22:00,15.3,10.5,29.91,West,270,0.0,0.0,81,0.00,CLR,,0.00,WeatherDisplay:10.37,2013-02-10 08:22:00,
2013-02-10 00:32:00,15.1,10.3,29.91,West,270,0.0,0.0,81,0.00,CLR,,0.00,WeatherDisplay:10.37,2013-02-10 08:32:00,
2013-02-10 00:37:00,15.1,10.3,29.91,West,270,0.0,0.0,81,0.00,CLR,,0.00,WeatherDisplay:10.37,2013-02-10 08:37:00,
2013-02-10 00:42:00,14.9,10.1,29.91,West,270,0.0,0.0,81,0.00,CLR,,0.00,WeatherDisplay:10.37,2013-02-10 08:42:00,
2013-02-10 00:47:00,14.7,9.9,29.91,West,270,0.0,0.0,81,0.00,CLR,,0.00,WeatherDisplay:10.37,2013-02-10 08:47:00,
2013-02-10 00:52:00,14.4,9.3,29.91,West,270,0.0,0.0,80,0.00,CLR,,0.00,WeatherDisplay:10.37,2013-02-10 08:52:00,
2013-02-10 00:57:00,14.4,9.6,29.91,West,270,0.0,0.0,81,0.00,CLR,,0.00,WeatherDisplay:10.37,2013-02-10 08:57:00,
2013-02-10 01:02:00,14.4,9.6,29.91,West,270,0.0,0.0,81,0.00,CLR,,0.00,WeatherDisplay:10.37,2013-02-10 09:02:00,
2013-02-10 01:07:00,14.2,9.4,29.91,West,270,0.0,0.0,81,0.00,CLR,,0.00,WeatherDisplay:10.37,2013-02-10 09:07:00,
2013-02-10 01:12:00,14.2,9.4,29.91,West,270,0.0,0.0,81,0.00,CLR,,0.00,WeatherDisplay:10.37,2013-02-10 09:12:00,
2013-02-10 01:17:00,14.0,9.5,29.91,West,270,0.0,0.0,82,0.00,CLR,,0.00,WeatherDisplay:10.37,2013-02-10 09:17:00,
2013-02-10 01:22:00,14.2,9.7,29.91,West,270,0.0,0.0,82,0.00,CLR,,0.00,WeatherDisplay:10.37,2013-02-10 09:22:00,
2013-02-10 01:27:00,14.2,9.7,29.91,West,270,0.0,0.0,82,0.00,CLR,,0.00,WeatherDisplay:10.37,2013-02-10 09:27:00,
2013-02-10 01:32:00,13.8,9.3,29.91,West,270,0.0,0.0,82,0.00,CLR,,0.00,WeatherDisplay:10.37,2013-02-10 09:32:00,
2013-02-10 01:37:00,13.8,9.3,29.91,West,270,0.0,0.0,82,0.00,CLR,,0.00,WeatherDisplay:10.37,2013-02-10 09:37:00,
2013-02-10 01:42:00,13.8,9.3,29.91,West,270,0.0,0.0,82,0.00,CLR,,0.00,WeatherDisplay:10.37,2013-02-10 09:42:00,
2013-02-10 01:47:00,13.8,9.3,29.91,West,270,0.0,0.0,82,0.00,CLR,,0.00,WeatherDisplay:10.37,2013-02-10 09:47:00,
2013-02-10 01:52:00,13.8,9.3,29.91,West,270,0.0,0.0,82,0.00,CLR,,0.00,WeatherDisplay:10.37,2013-02-10 09:52:00,
2013-02-10 01:57:00,13.8,9.3,29.91,West,270,0.0,0.0,82,0.00,CLR,,0.00,WeatherDisplay:10.37,2013-02-10 09:57:00,
2013-02-10 02:02:00,13.6,9.2,29.91,West,270,0.0,0.0,82,0.00,CLR,,0.00,WeatherDisplay:10.37,2013-02-10 10:02:00,
2013-02-10 02:07:00,13.8,9.3,29.91,West,270,0.0,0.0,82,0.00,CLR,,0.00,WeatherDisplay:10.37,2013-02-10 10:07:00,
2013-02-10 02:12:00,13.8,9.3,29.91,West,270,0.0,0.0,82,0.00,CLR,,0.00,WeatherDisplay:10.37,2013-02-10 10:12:00,
2013-02-10 02:17:00,13.5,9.0,29.91,West,270,0.0,0.0,82,0.00,CLR,,0.00,WeatherDisplay:10.37,2013-02-10 10:17:00,
2013-02-10 02:22:00,13.2,8.7,29.88,West,270,0.0,0.0,82,0.00,CLR,,0.00,WeatherDisplay:10.37,2013-02-10 10:22:00,
2013-02-10 02:27:00,12.8,8.3,29.88,West,270,0.0,0.0,82,0.00,CLR,,0.00,WeatherDisplay:10.37,2013-02-10 10:27:00,
2013-02-10 02:32:00,12.7,8.2,29.88,West,270,0.0,0.0,82,0.00,CLR,,0.00,WeatherDisplay:10.37,2013-02-10 10:32:00,
2013-02-10 02:42:00,12.7,8.3,29.91,West,270,0.0,0.0,82,0.00,CLR,,0.00,WeatherDisplay:10.37,2013-02-10 10:42:00,
2013-02-10 02:52:00,12.7,8.3,29.91,West,270,0.0,0.0,82,0.00,CLR,,0.00,WeatherDisplay:10.37,2013-02-10 10:52:00,
2013-02-10 02:57:00,12.9,8.5,29.91,West,270,0.0,0.0,82,0.00,CLR,,0.00,WeatherDisplay:10.37,2013-02-10 10:57:00,
2013-02-10 03:02:00,12.9,8.5,29.91,West,270,0.0,0.0,82,0.00,CLR,,0.00,WeatherDisplay:10.37,2013-02-10 11:02:00,
2013-02-10 03:07:00,12.7,8.3,29.91,West,270,0.0,0.0,82,0.00,CLR,,0.00,WeatherDisplay:10.37,2013-02-10 11:07:00,
2013-02-10 03:12:00,12.6,8.1,29.91,West,270,0.0,0.0,82,0.00,CLR,,0.00,WeatherDisplay:10.37,2013-02-10 11:12:00,
2013-02-10 03:17:00,12.6,8.1,29.91,West,270,0.0,0.0,82,0.00,CLR,,0.00,WeatherDisplay:10.37,2013-02-10 11:17:00,
2013-02-10 03:22:00,12.6,8.1,29.91,West,270,0.0,0.0,82,0.00,CLR,,0.00,WeatherDisplay:10.37,2013-02-10 11:22:00,
2013-02-10 03:27:00,12.6,8.1,29.91,West,270,0.0,0.0,82,0.00,CLR,,0.00,WeatherDisplay:10.37,2013-02-10 11:27:00,
2013-02-10 03:32:00,12.6,8.1,29.91,West,270,0.0,0.0,82,0.00,CLR,,0.00,WeatherDisplay:10.37,2013-02-10 11:32:00,
2013-02-10 03:37:00,12.6,8.1,29.91,West,270,0.0,0.0,82,0.00,CLR,,0.00,WeatherDisplay:10.37,2013-02-10 11:37:00,
2013-02-10 03:42:00,12.4,7.9,29.91,West,270,0.0,0.0,82,0.00,CLR,,0.00,WeatherDisplay:10.37,2013-02-10 11:42:00,
2013-02-10 03:47:00,12.2,7.8,29.91,West,270,0.0,0.0,82,0.00,CLR,,0.00,WeatherDisplay:10.37,2013-02-10 11:47:00,
2013-02-10 03:52:00,12.2,7.8,29.91,West,270,0.0,0.0,82,0.00,CLR,,0.00,WeatherDisplay:10.37,2013-02-10 11:52:00,
2013-02-10 21:57:00,21.4,13.4,29.91,NNW,337,0.0,0.0,71,0.00,,,0.04,WeatherDisplay:10.37,2013-02-11 05:57:00,
2013-02-10 22:02:00,21.9,13.6,29.91,NNW,338,0.0,0.0,70,0.00,,,0.04,WeatherDisplay:10.37,2013-02-11 06:02:00,
2013-02-10 22:07:00,22.1,14.1,29.91,NNW,346,0.0,0.0,71,0.00,,,0.04,WeatherDisplay:10.37,2013-02-11 06:07:00,
2013-02-10 22:12:00,22.3,14.3,29.91,North,353,0.0,0.0,71,0.00,,,0.04,WeatherDisplay:10.37,2013-02-11 06:12:00,
2013-02-10 22:17:00,22.5,14.8,29.91,North,353,0.0,0.0,72,0.00,,,0.04,WeatherDisplay:10.37,2013-02-11 06:17:00,
2013-02-10 22:27:00,22.5,15.1,29.91,North,353,0.0,0.0,73,0.00,,,0.04,WeatherDisplay:10.37,2013-02-11 06:27:00,
2013-02-10 22:32:00,22.3,14.9,29.91,North,353,0.0,0.0,73,0.00,,,0.04,WeatherDisplay:10.37,2013-02-11 06:32:00,
2013-02-10 22:37:00,22.1,15.1,29.91,North,353,0.0,0.0,74,0.00,,,0.04,WeatherDisplay:10.37,2013-02-11 06:37:00,
2013-02-10 22:42:00,21.9,14.9,29.91,North,353,0.0,0.0,74,0.00,,,0.04,WeatherDisplay:10.37,2013-02-11 06:42:00,
2013-02-10 22:52:00,22.1,15.4,29.91,North,353,0.0,0.0,75,0.00,,,0.04,WeatherDisplay:10.37,2013-02-11 06:52:00,
2013-02-10 22:57:00,22.1,15.7,29.91,North,353,0.0,0.0,76,0.00,,,0.04,WeatherDisplay:10.37,2013-02-11 06:57:00,
2013-02-10 23:02:00,22.3,16.2,29.91,North,353,0.0,0.0,77,0.00,,,0.04,WeatherDisplay:10.37,2013-02-11 07:02:00,
2013-02-10 23:12:00,21.9,16.1,29.91,North,353,0.0,0.0,78,0.00,,,0.04,WeatherDisplay:10.37,2013-02-11 07:12:00,
2013-02-10 23:17:00,21.9,16.1,29.91,North,353,0.0,0.0,78,0.00,,,0.04,WeatherDisplay:10.37,2013-02-11 07:17:00,
2013-02-10 23:22:00,21.9,16.4,29.91,North,353,0.0,0.0,79,0.00,,,0.04,WeatherDisplay:10.37,2013-02-11 07:22:00,
2013-02-10 23:27:00,21.9,16.4,29.91,North,353,0.0,0.0,79,0.00,,,0.04,WeatherDisplay:10.37,2013-02-11 07:27:00,
2013-02-10 23:32:00,21.9,16.7,29.91,North,353,0.0,0.0,80,0.00,,,0.04,WeatherDisplay:10.37,2013-02-11 07:32:00,
2013-02-10 23:37:00,21.9,16.7,29.91,North,353,0.0,0.0,80,0.00,,,0.04,WeatherDisplay:10.37,2013-02-11 07:37:00,
2013-02-10 23:42:00,21.9,16.7,29.91,North,353,0.0,0.0,80,0.00,,,0.04,WeatherDisplay:10.37,2013-02-11 07:42:00,
2013-02-10 23:47:00,21.9,17.0,29.91,North,353,0.0,0.0,81,0.00,,,0.04,WeatherDisplay:10.37,2013-02-11 07:47:00,
2013-02-10 23:52:00,21.9,17.0,29.91,North,353,0.0,0.0,81,0.00,,,0.04,WeatherDisplay:10.37,2013-02-11 07:52:00,